createdAt,value
2023-02-19T00:00:53.259Z,100527.66
2023-02-19T00:03:59.227Z,100526.38
2023-02-19T00:07:02.012Z,100527.34
2023-02-19T00:10:04.960Z,100530.44
2023-02-19T00:13:08.964Z,100522.03
2023-02-19T00:16:18.268Z,100533.47
2023-02-19T00:19:21.614Z,100528.31
2023-02-19T00:22:24.504Z,100534.66
2023-02-19T00:25:27.303Z,100539.69
2023-02-19T00:28:30.077Z,100531.31
2023-02-19T00:31:35.678Z,100533.13
2023-02-19T00:34:38.502Z,100527.16
2023-02-19T00:37:41.257Z,100528.34
2023-02-19T00:40:44.208Z,100526.34
2023-02-19T00:43:46.881Z,100520.50
2023-02-19T00:46:50.064Z,100525.69
2023-02-19T00:49:52.868Z,100526.47
2023-02-19T00:52:55.622Z,100530.84
2023-02-19T00:55:58.368Z,100527.91
2023-02-19T00:59:01.156Z,100537.66
2023-02-19T01:02:04.206Z,100534.09
2023-02-19T01:05:07.216Z,100532.03
2023-02-19T01:08:10.750Z,100526.69
2023-02-19T01:11:14.304Z,100535.16
2023-02-19T01:14:17.099Z,100535.94
2023-02-19T01:17:20.451Z,100530.94
2023-02-19T01:20:23.343Z,100512.75
2023-02-19T01:23:26.605Z,100518.38
2023-02-19T01:26:32.064Z,100510.59
2023-02-19T01:29:34.837Z,100511.88
2023-02-19T01:32:38.159Z,100527.69
2023-02-19T01:35:41.199Z,100520.88
2023-02-19T01:38:44.868Z,100528.50
2023-02-19T01:41:47.711Z,100530.88
2023-02-19T01:45:24.416Z,100529.41
2023-02-19T01:48:38.788Z,100517.75
2023-02-19T01:52:08.128Z,100522.25
2023-02-19T01:55:14.021Z,100521.59
2023-02-19T01:58:17.282Z,100507.47
2023-02-19T02:01:20.336Z,100511.97
2023-02-19T02:04:24.482Z,100518.59
2023-02-19T02:07:45.927Z,100512.94
2023-02-19T02:10:50.753Z,100522.50
2023-02-19T02:13:54.636Z,100524.63
2023-02-19T02:17:03.435Z,100519.72
2023-02-19T02:20:41.451Z,100523.00
2023-02-19T02:24:11.963Z,100520.88
2023-02-19T02:27:49.470Z,100533.13
2023-02-19T02:31:15.426Z,100524.69
2023-02-19T02:34:27.872Z,100530.25
2023-02-19T02:37:35.854Z,100531.56
2023-02-19T02:40:43.100Z,100520.13
2023-02-19T02:43:46.989Z,100530.03
2023-02-19T02:46:51.561Z,100535.63
2023-02-19T02:50:07.079Z,100542.53
2023-02-19T02:53:41.274Z,100538.59
2023-02-19T02:56:46.751Z,100548.13
2023-02-19T02:59:50.731Z,100547.63
2023-02-19T03:02:57.557Z,100537.56
2023-02-19T03:06:05.170Z,100526.84
2023-02-19T03:09:13.599Z,100542.75
2023-02-19T03:12:38.249Z,100538.38
2023-02-19T03:16:09.881Z,100546.28
2023-02-19T03:19:21.149Z,100546.72
2023-02-19T03:22:30.963Z,100553.66
2023-02-19T03:25:56.462Z,100550.13
2023-02-19T03:29:24.076Z,100550.38
2023-02-19T03:32:39.328Z,100558.69
2023-02-19T03:35:50.093Z,100549.31
2023-02-19T03:39:15.608Z,100554.50
2023-02-19T03:42:30.627Z,100561.81
2023-02-19T03:45:43.267Z,100571.34
2023-02-19T03:48:53.435Z,100577.84
2023-02-19T03:52:13.057Z,100572.69
2023-02-19T03:55:23.847Z,100584.88
2023-02-19T03:58:49.604Z,100591.38
2023-02-19T04:01:56.803Z,100583.09
2023-02-19T04:05:14.015Z,100576.44
2023-02-19T04:08:20.173Z,100571.66
2023-02-19T04:11:31.733Z,100567.44
2023-02-19T04:14:44.592Z,100573.41
2023-02-19T04:17:57.493Z,100575.19
2023-02-19T04:21:02.888Z,100562.25
2023-02-19T04:24:15.036Z,100564.69
2023-02-19T04:27:18.382Z,100554.50
2023-02-19T04:30:21.773Z,100552.69
2023-02-19T04:33:24.488Z,100548.66
2023-02-19T04:36:27.349Z,100547.31
2023-02-19T04:39:30.168Z,100555.25
2023-02-19T04:42:32.924Z,100555.25
2023-02-19T04:45:37.913Z,100551.69
2023-02-19T04:48:40.810Z,100561.06
2023-02-19T04:51:43.799Z,100553.97
2023-02-19T04:54:46.560Z,100557.53
2023-02-19T04:57:49.401Z,100547.75
2023-02-19T05:00:53.166Z,100548.56
2023-02-19T05:03:56.006Z,100543.25
2023-02-19T05:06:58.766Z,100544.81
2023-02-19T05:10:01.506Z,100550.94
2023-02-19T05:13:04.387Z,100543.19
2023-02-19T05:16:13.869Z,100538.81
2023-02-19T05:19:16.985Z,100529.63
2023-02-19T05:22:19.767Z,100525.81
2023-02-19T05:25:22.499Z,100523.06
2023-02-19T05:28:29.140Z,100524.53
2023-02-19T05:31:33.989Z,100528.09
2023-02-19T05:34:36.901Z,100525.81
2023-02-19T05:37:39.741Z,100518.72
2023-02-19T05:40:43.557Z,100522.91
2023-02-19T05:43:48.274Z,100531.41
2023-02-19T05:46:51.012Z,100516.47
2023-02-19T05:49:53.756Z,100535.75
2023-02-19T05:52:56.525Z,100527.84
2023-02-19T05:55:59.512Z,100518.03
2023-02-19T05:59:08.454Z,100518.31
2023-02-19T06:02:12.032Z,100514.28
2023-02-19T06:05:15.001Z,100521.47
2023-02-19T06:08:17.757Z,100516.94
2023-02-19T06:11:20.705Z,100505.50
2023-02-19T06:14:23.567Z,100512.81
2023-02-19T06:17:26.273Z,100505.38
2023-02-19T06:20:30.485Z,100504.75
2023-02-19T06:23:33.617Z,100500.59
2023-02-19T06:26:36.953Z,100506.13
2023-02-19T06:29:40.087Z,100496.78
2023-02-19T06:32:43.127Z,100494.53
2023-02-19T06:35:45.892Z,100496.19
2023-02-19T06:38:49.164Z,100504.94
2023-02-19T06:41:55.043Z,100508.63
2023-02-19T06:44:57.798Z,100503.63
2023-02-19T06:48:00.576Z,100495.72
2023-02-19T06:51:03.949Z,100493.13
2023-02-19T06:54:06.829Z,100493.34
2023-02-19T06:57:09.568Z,100500.19
2023-02-19T07:00:12.599Z,100500.88
2023-02-19T07:03:15.581Z,100482.72
2023-02-19T07:06:22.547Z,100489.88
2023-02-19T07:09:25.622Z,100480.47
2023-02-19T07:12:28.351Z,100473.06
2023-02-19T07:15:31.266Z,100486.03
2023-02-19T07:18:34.465Z,100485.56
2023-02-19T07:21:38.039Z,100481.19
2023-02-19T07:24:40.858Z,100491.75
2023-02-19T07:27:43.632Z,100495.66
2023-02-19T07:30:46.838Z,100480.25
2023-02-19T07:33:52.264Z,100487.25
2023-02-19T07:36:54.981Z,100473.44
2023-02-19T07:39:57.706Z,100450.25
2023-02-19T07:43:00.849Z,100466.00
2023-02-19T07:46:08.400Z,100458.34
2023-02-19T07:49:11.440Z,100460.25
2023-02-19T07:52:14.298Z,100442.56
2023-02-19T07:55:17.155Z,100427.41
2023-02-19T07:58:20.288Z,100434.78
2023-02-19T08:01:44.528Z,100445.94
2023-02-19T08:04:48.203Z,100441.66
2023-02-19T08:07:50.932Z,100444.53
2023-02-19T08:11:12.684Z,100455.44
2023-02-19T08:14:15.810Z,100460.31
2023-02-19T08:17:18.614Z,100457.72
2023-02-19T08:20:21.459Z,100480.06
2023-02-19T08:23:24.588Z,100498.97
2023-02-19T08:26:27.366Z,100494.13
2023-02-19T08:29:30.124Z,100480.00
2023-02-19T08:32:32.924Z,100487.84
2023-02-19T08:35:36.817Z,100486.53
2023-02-19T08:38:39.677Z,100474.84
2023-02-19T08:41:42.552Z,100481.53
2023-02-19T08:44:45.298Z,100469.19
2023-02-19T08:47:48.066Z,100466.44
2023-02-19T08:50:59.078Z,100475.84
2023-02-19T08:54:03.950Z,100474.84
2023-02-19T08:57:06.819Z,100467.03
2023-02-19T09:00:10.682Z,100444.66
2023-02-19T09:03:13.508Z,100449.50
2023-02-19T09:06:19.081Z,100450.78
2023-02-19T09:09:21.889Z,100460.69
2023-02-19T09:12:25.375Z,100478.03
2023-02-19T09:15:29.730Z,100487.44
2023-02-19T09:18:33.321Z,100472.84
2023-02-19T09:21:36.133Z,100468.97
2023-02-19T09:24:39.034Z,100478.88
2023-02-19T09:27:41.925Z,100467.84
2023-02-19T09:30:44.702Z,100464.41
2023-02-19T09:33:48.692Z,100472.56
2023-02-19T09:36:51.828Z,100465.09
2023-02-19T09:39:55.420Z,100460.88
2023-02-19T09:43:00.912Z,100466.22
2023-02-19T09:46:22.494Z,100483.78
2023-02-19T09:49:39.457Z,100472.88
2023-02-19T09:52:47.293Z,100466.22
2023-02-19T09:55:52.762Z,100479.56
2023-02-19T09:58:58.603Z,100481.19
2023-02-19T10:02:13.382Z,100470.63
2023-02-19T10:05:16.688Z,100446.56
2023-02-19T10:08:21.655Z,100418.84
2023-02-19T10:11:26.588Z,100391.38
2023-02-19T10:14:47.733Z,100373.06
2023-02-19T10:17:50.791Z,100327.84
2023-02-19T10:20:55.045Z,100334.34
2023-02-19T10:24:01.940Z,100345.41
2023-02-19T10:27:10.542Z,100314.72
2023-02-19T10:30:25.633Z,100252.31
2023-02-19T10:33:28.879Z,100242.38
2023-02-19T10:36:42.042Z,100260.56
2023-02-19T10:39:47.603Z,100352.22
2023-02-19T10:42:54.561Z,100393.28
2023-02-19T10:46:00.138Z,100373.63
2023-02-19T10:49:06.756Z,100379.16
2023-02-19T10:52:25.673Z,100380.84
2023-02-19T10:55:37.948Z,100387.81
2023-02-19T10:58:42.547Z,100388.78
2023-02-19T11:01:56.090Z,100366.72
2023-02-19T11:05:06.521Z,100380.34
2023-02-19T11:08:22.162Z,100393.66
2023-02-19T11:11:45.131Z,100360.72
2023-02-19T11:14:47.983Z,100342.41
2023-02-19T11:18:03.525Z,100340.88
2023-02-19T11:21:07.600Z,100325.00
2023-02-19T11:24:31.456Z,100320.34
2023-02-19T11:27:34.438Z,100340.81
2023-02-19T11:30:42.290Z,100338.47
2023-02-19T11:33:53.692Z,100335.84
2023-02-19T11:37:13.722Z,100327.06
2023-02-19T11:40:16.741Z,100329.38
2023-02-19T11:43:40.771Z,100340.31
2023-02-19T11:46:58.868Z,100329.28
2023-02-19T11:50:29.645Z,100334.88
2023-02-19T11:53:37.366Z,100320.22
2023-02-19T11:56:43.277Z,100336.84
2023-02-19T12:00:14.162Z,100315.19
2023-02-19T12:03:46.211Z,100301.47
2023-02-19T12:07:07.744Z,100306.19
2023-02-19T12:10:13.435Z,100292.25
2023-02-19T12:13:57.579Z,100299.56
2023-02-19T12:17:35.690Z,100310.22
2023-02-19T12:20:57.264Z,100297.69
2023-02-19T12:24:03.201Z,100291.97
2023-02-19T12:27:32.428Z,100282.31
2023-02-19T12:31:03.576Z,100274.91
2023-02-19T12:34:27.981Z,100270.91
2023-02-19T12:38:14.281Z,100289.28
2023-02-19T12:41:20.232Z,100300.72
2023-02-19T12:44:47.004Z,100299.25
2023-02-19T12:48:06.669Z,100299.66
2023-02-19T12:51:27.540Z,100292.81
2023-02-19T12:54:38.851Z,100298.81
2023-02-19T12:57:41.836Z,100294.78
2023-02-19T13:00:50.694Z,100287.94
2023-02-19T13:04:20.788Z,100287.88
2023-02-19T13:07:29.111Z,100284.31
2023-02-19T13:10:50.768Z,100300.63
2023-02-19T13:14:03.635Z,100318.03
2023-02-19T13:17:38.679Z,100310.78
2023-02-19T13:20:43.737Z,100306.03
2023-02-19T13:23:58.682Z,100295.25
2023-02-19T13:27:13.520Z,100295.53
2023-02-19T13:30:34.810Z,100285.22
2023-02-19T13:34:06.577Z,100273.81
2023-02-19T13:37:11.618Z,100281.59
2023-02-19T13:40:33.486Z,100276.03
2023-02-19T13:43:39.131Z,100266.53
2023-02-19T13:46:44.007Z,100274.78
2023-02-19T13:49:49.537Z,100277.59
2023-02-19T13:52:54.235Z,100285.25
2023-02-19T13:55:57.256Z,100274.06
2023-02-19T13:59:45.421Z,100281.06
2023-02-19T14:02:48.463Z,100275.00
2023-02-19T14:06:05.464Z,100273.19
2023-02-19T14:09:37.440Z,100268.53
2023-02-19T14:12:40.632Z,100265.28
2023-02-19T14:15:49.884Z,100268.72
2023-02-19T14:18:53.003Z,100249.16
2023-02-19T14:21:56.324Z,100260.44
2023-02-19T14:25:00.704Z,100260.22
2023-02-19T14:28:18.530Z,100272.00
2023-02-19T14:31:25.158Z,100266.88
2023-02-19T14:34:29.604Z,100265.97
2023-02-19T14:37:33.528Z,100273.72
2023-02-19T14:40:41.801Z,100271.78
2023-02-19T14:43:46.893Z,100276.88
2023-02-19T14:46:52.682Z,100282.22
2023-02-19T14:50:01.498Z,100289.22
2023-02-19T14:53:07.983Z,100289.66
2023-02-19T14:56:25.275Z,100284.81
2023-02-19T14:59:31.330Z,100296.69
2023-02-19T15:02:43.100Z,100298.84
2023-02-19T15:05:46.236Z,100303.47
2023-02-19T15:08:53.140Z,100304.47
2023-02-19T15:11:58.010Z,100298.97
2023-02-19T15:15:05.019Z,100308.16
2023-02-19T15:18:18.457Z,100308.97
2023-02-19T15:21:24.845Z,100309.88
2023-02-19T15:24:29.206Z,100311.09
2023-02-19T15:27:35.738Z,100315.59
2023-02-19T15:30:40.206Z,100321.72
2023-02-19T15:33:51.370Z,100334.59
2023-02-19T15:37:06.690Z,100351.16
2023-02-19T15:40:15.228Z,100357.56
2023-02-19T15:43:31.535Z,100359.69
2023-02-19T15:46:37.443Z,100373.69
2023-02-19T15:49:54.118Z,100376.75
2023-02-19T15:53:09.548Z,100379.59
2023-02-19T15:56:28.162Z,100381.22
2023-02-19T15:59:40.975Z,100385.06
2023-02-19T16:02:45.024Z,100376.25
2023-02-19T16:06:01.829Z,100380.06
2023-02-19T16:09:06.659Z,100396.81
2023-02-19T16:12:24.850Z,100397.47
2023-02-19T16:15:30.265Z,100392.78
2023-02-19T16:18:33.705Z,100395.72
2023-02-19T16:21:37.094Z,100391.75
2023-02-19T16:24:45.714Z,100393.75
2023-02-19T16:27:48.844Z,100404.03
2023-02-19T16:31:03.542Z,100401.66
2023-02-19T16:34:18.817Z,100408.66
2023-02-19T16:37:41.245Z,100417.66
2023-02-19T16:40:46.838Z,100418.63
2023-02-19T16:43:49.828Z,100423.06
2023-02-19T16:46:55.824Z,100439.97
2023-02-19T16:50:04.928Z,100443.06
2023-02-19T16:53:21.863Z,100441.78
2023-02-19T16:56:25.480Z,100448.13
2023-02-19T16:59:28.476Z,100455.09
2023-02-19T17:02:33.574Z,100462.56
2023-02-19T17:05:37.833Z,100470.69
2023-02-19T17:08:43.657Z,100478.00
2023-02-19T17:11:47.800Z,100480.72
2023-02-19T17:14:50.910Z,100489.97
2023-02-19T17:17:53.838Z,100495.81
2023-02-19T17:21:20.567Z,100498.56
2023-02-19T17:24:24.617Z,100497.59
2023-02-19T17:27:27.583Z,100508.63
2023-02-19T17:30:32.739Z,100509.94
2023-02-19T17:33:35.880Z,100516.25
2023-02-19T17:36:41.026Z,100525.00
2023-02-19T17:39:44.448Z,100522.41
2023-02-19T17:42:47.607Z,100526.28
2023-02-19T17:45:51.785Z,100526.06
2023-02-19T17:48:55.290Z,100528.50
2023-02-19T17:51:59.713Z,100531.09
2023-02-19T17:55:02.746Z,100552.31
2023-02-19T17:58:07.077Z,100551.78
2023-02-19T18:01:10.476Z,100559.53
2023-02-19T18:04:13.568Z,100563.25
2023-02-19T18:07:16.842Z,100569.44
2023-02-19T18:10:23.495Z,100571.97
2023-02-19T18:13:26.881Z,100567.94
2023-02-19T18:16:30.075Z,100577.22
2023-02-19T18:19:32.961Z,100576.44
2023-02-19T18:22:36.058Z,100586.16
2023-02-19T18:25:39.483Z,100597.25
2023-02-19T18:28:42.583Z,100597.81
2023-02-19T18:31:45.892Z,100600.81
2023-02-19T18:34:53.819Z,100600.00
2023-02-19T18:37:56.930Z,100605.38
2023-02-19T18:40:59.972Z,100617.22
2023-02-19T18:44:03.242Z,100618.34
2023-02-19T18:47:07.654Z,100618.84
2023-02-19T18:50:11.449Z,100607.78
2023-02-19T18:53:14.680Z,100620.13
2023-02-19T18:56:17.910Z,100632.16
2023-02-19T18:59:21.719Z,100635.22
2023-02-19T19:02:24.988Z,100638.13
2023-02-19T19:05:28.509Z,100645.91
2023-02-19T19:08:31.728Z,100650.25
2023-02-19T19:11:35.050Z,100654.63
2023-02-19T19:14:38.213Z,100657.81
2023-02-19T19:17:45.452Z,100666.66
2023-02-19T19:20:49.265Z,100670.47
2023-02-19T19:23:52.271Z,100698.75
2023-02-19T19:26:55.414Z,100723.09
2023-02-19T19:29:58.853Z,100712.19
2023-02-19T19:33:03.626Z,100718.94
2023-02-19T19:36:07.773Z,100738.81
2023-02-19T19:39:11.037Z,100734.84
2023-02-19T19:42:14.166Z,100745.47
2023-02-19T19:45:16.964Z,100753.72
2023-02-19T19:48:20.390Z,100750.94
2023-02-19T19:51:23.639Z,100770.50
2023-02-19T19:54:27.250Z,100771.69
2023-02-19T19:57:30.280Z,100785.22
2023-02-19T20:00:33.409Z,100784.88
2023-02-19T20:03:37.668Z,100791.13
2023-02-19T20:06:41.820Z,100783.34
2023-02-19T20:09:49.123Z,100783.44
2023-02-19T20:12:52.337Z,100786.59
2023-02-19T20:15:55.694Z,100787.94
2023-02-19T20:18:58.954Z,100792.44
2023-02-19T20:22:02.138Z,100792.81
2023-02-19T20:25:05.858Z,100790.03
2023-02-19T20:28:08.921Z,100805.91
2023-02-19T20:31:12.369Z,100805.28
2023-02-19T20:34:17.841Z,100813.59
2023-02-19T20:37:20.860Z,100809.78
2023-02-19T20:40:27.487Z,100816.66
2023-02-19T20:43:30.556Z,100807.94
2023-02-19T20:46:33.528Z,100799.63
2023-02-19T20:49:37.338Z,100805.94
2023-02-19T20:52:40.391Z,100814.38
2023-02-19T20:55:43.296Z,100814.50
2023-02-19T20:58:46.282Z,100811.78
2023-02-19T21:01:50.121Z,100808.09
2023-02-19T21:04:53.225Z,100810.47
2023-02-19T21:07:55.985Z,100826.03
2023-02-19T21:10:58.960Z,100827.19
2023-02-19T21:14:02.086Z,100820.38
2023-02-19T21:17:06.121Z,100821.59
2023-02-19T21:20:09.558Z,100834.47
2023-02-19T21:23:14.310Z,100828.91
2023-02-19T21:26:17.321Z,100824.53
2023-02-19T21:29:22.171Z,100834.53
2023-02-19T21:32:25.100Z,100848.97
2023-02-19T21:35:29.151Z,100857.13
2023-02-19T21:38:32.757Z,100860.84
2023-02-19T21:41:35.818Z,100854.28
2023-02-19T21:44:38.862Z,100866.03
2023-02-19T21:47:43.177Z,100879.66
2023-02-19T21:50:46.062Z,100880.06
2023-02-19T21:53:49.165Z,100884.28
2023-02-19T21:56:53.573Z,100888.34
2023-02-19T21:59:56.509Z,100893.69
2023-02-19T22:02:59.542Z,100890.81
2023-02-19T22:06:02.433Z,100891.09
2023-02-19T22:09:06.558Z,100903.06
2023-02-19T22:12:09.328Z,100899.53
2023-02-19T22:15:12.365Z,100908.75
2023-02-19T22:18:15.149Z,100916.66
2023-02-19T22:21:19.220Z,100915.56
2023-02-19T22:24:22.952Z,100906.03
2023-02-19T22:27:25.798Z,100910.97
2023-02-19T22:30:29.781Z,100911.25
2023-02-19T22:33:32.464Z,100908.03
2023-02-19T22:36:39.142Z,100913.19
2023-02-19T22:39:42.253Z,100914.13
2023-02-19T22:42:44.981Z,100913.59
2023-02-19T22:45:48.095Z,100913.59
2023-02-19T22:48:51.246Z,100925.31
2023-02-19T22:51:58.490Z,100939.59
2023-02-19T22:55:01.577Z,100944.09
2023-02-19T22:58:04.389Z,100956.03
2023-02-19T23:01:07.615Z,100959.44
2023-02-19T23:04:10.543Z,100975.16
2023-02-19T23:07:13.324Z,100972.00
2023-02-19T23:10:16.344Z,100968.25
2023-02-19T23:13:20.106Z,100981.78
2023-02-19T23:16:23.897Z,100976.09
2023-02-19T23:19:26.994Z,100971.44
2023-02-19T23:22:30.134Z,100981.97
2023-02-19T23:25:32.922Z,100971.41
2023-02-19T23:28:36.027Z,100952.47
2023-02-19T23:31:38.893Z,100966.50
2023-02-19T23:34:41.879Z,100968.53
2023-02-19T23:37:44.594Z,100979.69
2023-02-19T23:40:48.218Z,100989.88
2023-02-19T23:43:51.111Z,100988.66
2023-02-19T23:46:53.861Z,100978.75
2023-02-19T23:49:56.597Z,100988.66
2023-02-19T23:52:59.809Z,100997.06
2023-02-19T23:56:04.481Z,101003.00
2023-02-19T23:59:07.232Z,101001.13
